createdAt,value
2023-04-08T00:00:18.119Z,7.84
2023-04-08T00:02:46.069Z,7.84
2023-04-08T00:05:13.471Z,7.80
2023-04-08T00:07:40.865Z,7.77
2023-04-08T00:10:08.915Z,7.78
2023-04-08T00:12:36.258Z,7.86
2023-04-08T00:15:03.726Z,7.82
2023-04-08T00:17:31.094Z,7.83
2023-04-08T00:19:58.557Z,7.90
2023-04-08T00:22:26.179Z,7.91
2023-04-08T00:24:53.529Z,7.90
2023-04-08T00:27:21.127Z,7.93
2023-04-08T00:29:48.500Z,7.92
2023-04-08T00:32:16.162Z,7.95
2023-04-08T00:34:43.596Z,8.01
2023-04-08T00:37:11.462Z,8.00
2023-04-08T00:39:38.906Z,8.00
2023-04-08T00:42:06.764Z,8.01
2023-04-08T00:44:34.108Z,7.99
2023-04-08T00:47:01.513Z,8.00
2023-04-08T00:49:29.006Z,8.00
2023-04-08T00:51:56.379Z,7.99
2023-04-08T00:54:23.932Z,8.02
2023-04-08T00:56:51.337Z,8.03
2023-04-08T00:59:18.852Z,8.03
2023-04-08T01:02:24.317Z,8.03
2023-04-08T01:05:12.396Z,8.05
2023-04-08T01:07:50.260Z,8.06
2023-04-08T01:10:29.588Z,8.05
2023-04-08T01:13:00.150Z,8.05
2023-04-08T01:15:29.267Z,8.06
2023-04-08T01:17:57.752Z,8.08
2023-04-08T01:20:26.598Z,8.08
2023-04-08T01:23:22.696Z,8.06
2023-04-08T01:25:57.090Z,8.08
2023-04-08T01:28:28.445Z,8.09
2023-04-08T01:30:59.639Z,8.08
2023-04-08T01:33:29.068Z,8.11
2023-04-08T01:35:58.026Z,8.12
2023-04-08T01:38:29.551Z,8.06
2023-04-08T01:40:57.978Z,8.08
2023-04-08T01:43:25.848Z,8.06
2023-04-08T01:45:58.252Z,8.11
2023-04-08T01:48:26.263Z,8.11
2023-04-08T01:50:53.997Z,8.13
2023-04-08T01:53:21.439Z,8.14
2023-04-08T01:55:53.513Z,8.10
2023-04-08T01:58:22.168Z,8.08
2023-04-08T02:00:51.832Z,8.10
2023-04-08T02:03:21.626Z,8.11
2023-04-08T02:05:49.361Z,8.10
2023-04-08T02:08:16.727Z,8.12
2023-04-08T02:10:44.115Z,8.10
2023-04-08T02:13:11.720Z,8.08
2023-04-08T02:15:43.375Z,8.05
2023-04-08T02:18:16.799Z,8.04
2023-04-08T02:21:15.605Z,8.05
2023-04-08T02:23:46.520Z,8.00
2023-04-08T02:26:16.167Z,8.00
2023-04-08T02:28:43.751Z,7.98
2023-04-08T02:31:15.760Z,7.99
2023-04-08T02:33:44.326Z,7.99
2023-04-08T02:36:12.954Z,7.96
2023-04-08T02:38:40.822Z,7.97
2023-04-08T02:41:08.212Z,7.98
2023-04-08T02:43:35.729Z,7.96
2023-04-08T02:46:04.418Z,7.93
2023-04-08T02:48:32.081Z,7.92
2023-04-08T02:50:59.436Z,7.91
2023-04-08T02:53:26.838Z,7.90
2023-04-08T02:55:54.209Z,7.93
2023-04-08T02:58:21.563Z,7.93
2023-04-08T03:00:48.972Z,7.91
2023-04-08T03:03:16.585Z,7.88
2023-04-08T03:05:44.016Z,7.86
2023-04-08T03:08:11.367Z,7.88
2023-04-08T03:10:38.336Z,7.87
2023-04-08T03:13:05.930Z,7.87
2023-04-08T03:15:33.283Z,7.84
2023-04-08T03:18:00.766Z,7.88
2023-04-08T03:20:28.129Z,7.90
2023-04-08T03:22:55.532Z,7.89
2023-04-08T03:25:22.863Z,7.86
2023-04-08T03:27:51.150Z,7.87
2023-04-08T03:30:18.719Z,7.87
2023-04-08T03:32:46.230Z,7.88
2023-04-08T03:35:13.793Z,7.86
2023-04-08T03:37:41.189Z,7.91
2023-04-08T03:40:09.443Z,7.84
2023-04-08T03:42:36.921Z,7.83
2023-04-08T03:45:04.686Z,7.78
2023-04-08T03:47:32.075Z,7.79
2023-04-08T03:49:59.561Z,7.80
2023-04-08T03:52:26.966Z,7.81
2023-04-08T03:54:54.330Z,7.76
2023-04-08T03:57:21.720Z,7.75
2023-04-08T03:59:49.081Z,7.77
2023-04-08T04:02:16.517Z,7.78
2023-04-08T04:04:44.065Z,7.76
2023-04-08T04:07:11.024Z,7.76
2023-04-08T04:09:38.009Z,7.81
2023-04-08T04:12:05.590Z,7.82
2023-04-08T04:14:32.966Z,7.80
2023-04-08T04:17:00.484Z,7.78
2023-04-08T04:19:31.813Z,7.76
2023-04-08T04:21:59.178Z,7.80
2023-04-08T04:24:26.591Z,7.79
2023-04-08T04:26:53.928Z,7.77
2023-04-08T04:29:21.324Z,7.79
2023-04-08T04:31:48.671Z,7.82
2023-04-08T04:34:17.274Z,7.81
2023-04-08T04:36:44.684Z,7.82
2023-04-08T04:39:12.251Z,7.80
2023-04-08T04:41:40.717Z,7.81
2023-04-08T04:44:08.466Z,7.78
2023-04-08T04:46:35.951Z,7.76
2023-04-08T04:49:03.428Z,7.73
2023-04-08T04:51:33.369Z,7.79
2023-04-08T04:54:01.294Z,7.80
2023-04-08T04:56:28.815Z,7.78
2023-04-08T04:58:56.592Z,7.77
2023-04-08T05:01:24.057Z,7.77
2023-04-08T05:03:51.965Z,7.82
2023-04-08T05:06:19.378Z,7.78
2023-04-08T05:08:46.720Z,7.74
2023-04-08T05:11:14.074Z,7.80
2023-04-08T05:13:41.704Z,7.87
2023-04-08T05:16:09.278Z,7.87
2023-04-08T05:18:36.818Z,7.86
2023-04-08T05:21:04.402Z,7.86
2023-04-08T05:23:31.779Z,7.87
2023-04-08T05:25:59.679Z,7.89
2023-04-08T05:28:27.275Z,7.82
2023-04-08T05:30:54.915Z,7.80
2023-04-08T05:33:22.344Z,7.81
2023-04-08T05:35:49.772Z,7.83
2023-04-08T05:38:17.306Z,7.84
2023-04-08T05:40:44.638Z,7.88
2023-04-08T05:43:12.176Z,7.89
2023-04-08T05:45:39.550Z,7.90
2023-04-08T05:48:07.359Z,7.93
2023-04-08T05:50:36.473Z,7.94
2023-04-08T05:53:03.831Z,7.94
2023-04-08T05:55:31.211Z,7.96
2023-04-08T05:57:58.744Z,7.99
2023-04-08T06:00:26.406Z,8.01
2023-04-08T06:02:54.281Z,8.06
2023-04-08T06:05:21.858Z,8.08
2023-04-08T06:07:49.215Z,8.10
2023-04-08T06:10:16.682Z,8.09
2023-04-08T06:12:44.038Z,8.15
2023-04-08T06:15:11.417Z,8.15
2023-04-08T06:17:39.204Z,8.18
2023-04-08T06:20:07.504Z,8.17
2023-04-08T06:22:36.079Z,8.20
2023-04-08T06:25:03.393Z,8.23
2023-04-08T06:27:30.762Z,8.24
2023-04-08T06:29:58.161Z,8.28
2023-04-08T06:32:25.603Z,8.31
2023-04-08T06:34:53.028Z,8.37
2023-04-08T06:37:20.614Z,8.42
2023-04-08T06:39:48.223Z,8.37
2023-04-08T06:42:15.763Z,8.34
2023-04-08T06:44:43.104Z,8.29
2023-04-08T06:47:10.546Z,8.28
2023-04-08T06:49:38.078Z,8.28
2023-04-08T06:52:07.042Z,8.30
2023-04-08T06:54:34.475Z,8.35
2023-04-08T06:57:02.075Z,8.43
2023-04-08T06:59:30.504Z,8.54
2023-04-08T07:01:57.935Z,8.54
2023-04-08T07:04:25.655Z,8.51
2023-04-08T07:06:52.852Z,8.48
2023-04-08T07:09:20.603Z,8.42
2023-04-08T07:11:47.886Z,8.47
2023-04-08T07:14:15.293Z,8.55
2023-04-08T07:16:42.710Z,8.78
2023-04-08T07:19:10.058Z,8.89
2023-04-08T07:21:37.461Z,8.96
2023-04-08T07:24:05.096Z,9.01
2023-04-08T07:26:32.742Z,9.13
2023-04-08T07:29:00.202Z,9.24
2023-04-08T07:31:27.813Z,9.33
2023-04-08T07:33:55.438Z,9.38
2023-04-08T07:36:22.894Z,9.24
2023-04-08T07:38:50.726Z,9.30
2023-04-08T07:41:18.224Z,9.50
2023-04-08T07:43:46.137Z,9.52
2023-04-08T07:46:13.731Z,9.42
2023-04-08T07:48:41.249Z,9.63
2023-04-08T07:51:11.364Z,9.69
2023-04-08T07:53:40.625Z,9.82
2023-04-08T07:56:15.658Z,9.80
2023-04-08T07:58:43.660Z,9.75
2023-04-08T08:01:22.431Z,9.68
2023-04-08T08:03:52.262Z,9.65
2023-04-08T08:06:20.997Z,9.60
2023-04-08T08:08:48.609Z,9.67
2023-04-08T08:11:16.427Z,10.01
2023-04-08T08:13:44.398Z,10.22
2023-04-08T08:16:12.761Z,10.29
2023-04-08T08:18:41.364Z,10.45
2023-04-08T08:21:09.415Z,10.39
2023-04-08T08:23:37.968Z,10.26
2023-04-08T08:26:10.280Z,10.16
2023-04-08T08:28:38.544Z,10.22
2023-04-08T08:31:06.541Z,10.05
2023-04-08T08:33:34.375Z,10.16
2023-04-08T08:36:01.910Z,10.09
2023-04-08T08:38:29.464Z,10.12
2023-04-08T08:40:58.867Z,10.13
2023-04-08T08:43:27.371Z,10.08
2023-04-08T08:45:55.077Z,10.25
2023-04-08T08:48:22.456Z,10.30
2023-04-08T08:50:50.028Z,10.57
2023-04-08T08:53:17.210Z,10.56
2023-04-08T08:56:13.736Z,10.80
2023-04-08T08:58:31.945Z,10.59
2023-04-08T09:00:59.336Z,10.75
2023-04-08T09:03:28.895Z,11.06
2023-04-08T09:06:02.444Z,11.24
2023-04-08T09:08:30.059Z,11.32
2023-04-08T09:11:15.014Z,11.40
2023-04-08T09:13:43.276Z,11.78
2023-04-08T09:16:16.593Z,11.67
2023-04-08T09:18:45.962Z,11.87
2023-04-08T09:21:14.961Z,11.88
2023-04-08T09:23:52.917Z,12.35
2023-04-08T09:26:24.802Z,12.22
2023-04-08T09:29:10.911Z,12.38
2023-04-08T09:31:42.447Z,12.02
2023-04-08T09:34:15.491Z,11.95
2023-04-08T09:36:52.671Z,12.06
2023-04-08T09:39:20.447Z,12.17
2023-04-08T09:41:53.213Z,12.31
2023-04-08T09:44:29.349Z,12.18
2023-04-08T09:47:16.118Z,12.02
2023-04-08T09:49:58.589Z,12.24
2023-04-08T09:52:34.591Z,12.10
2023-04-08T09:55:17.828Z,12.06
2023-04-08T09:58:02.948Z,12.23
2023-04-08T10:00:35.480Z,12.73
2023-04-08T10:03:38.767Z,12.67
2023-04-08T10:06:08.691Z,12.14
2023-04-08T10:08:36.611Z,12.02
2023-04-08T10:11:04.555Z,12.05
2023-04-08T10:13:32.208Z,12.02
2023-04-08T10:16:26.160Z,11.87
2023-04-08T10:18:57.328Z,12.00
2023-04-08T10:21:48.687Z,12.21
2023-04-08T10:24:16.164Z,12.63
2023-04-08T10:26:46.878Z,12.32
2023-04-08T10:29:19.962Z,12.39
2023-04-08T10:31:51.544Z,12.76
2023-04-08T10:34:20.561Z,12.57
2023-04-08T10:36:48.957Z,13.07
2023-04-08T10:39:16.804Z,13.37
2023-04-08T10:41:49.010Z,12.77
2023-04-08T10:44:23.944Z,12.71
2023-04-08T10:46:53.407Z,12.86
2023-04-08T10:49:22.262Z,12.88
2023-04-08T10:51:49.726Z,12.42
2023-04-08T10:54:18.638Z,12.75
2023-04-08T10:56:53.683Z,12.48
2023-04-08T10:59:34.423Z,12.62
2023-04-08T11:02:02.550Z,12.74
2023-04-08T11:04:30.383Z,12.61
2023-04-08T11:06:58.588Z,12.55
2023-04-08T11:09:26.071Z,12.34
2023-04-08T11:11:53.970Z,12.37
2023-04-08T11:14:22.518Z,12.60
2023-04-08T11:16:49.930Z,12.62
2023-04-08T11:19:18.117Z,12.42
2023-04-08T11:21:45.677Z,12.65
2023-04-08T11:24:13.599Z,12.74
2023-04-08T11:26:41.688Z,13.06
2023-04-08T11:29:15.071Z,12.58
2023-04-08T11:31:44.049Z,12.82
2023-04-08T11:34:13.151Z,12.61
2023-04-08T11:36:42.986Z,12.98
2023-04-08T11:39:12.263Z,12.99
2023-04-08T11:41:43.119Z,12.60
2023-04-08T11:44:10.499Z,13.33
2023-04-08T11:46:38.059Z,13.29
2023-04-08T11:49:08.045Z,13.08
2023-04-08T11:51:55.086Z,12.90
2023-04-08T11:54:33.349Z,12.54
2023-04-08T11:57:01.063Z,12.72
2023-04-08T11:59:29.797Z,13.13
2023-04-08T12:01:57.692Z,12.93
2023-04-08T12:04:25.602Z,13.19
2023-04-08T12:06:53.417Z,13.34
2023-04-08T12:09:20.889Z,13.14
2023-04-08T12:11:48.407Z,13.90
2023-04-08T12:14:16.056Z,14.25
2023-04-08T12:16:43.508Z,13.87
2023-04-08T12:19:10.930Z,14.06
2023-04-08T12:21:38.424Z,14.66
2023-04-08T12:24:07.373Z,14.44
2023-04-08T12:26:34.808Z,14.53
2023-04-08T12:29:02.461Z,14.38
2023-04-08T12:31:30.302Z,14.50
2023-04-08T12:33:57.671Z,14.06
2023-04-08T12:36:25.119Z,14.14
2023-04-08T12:38:52.607Z,13.68
2023-04-08T12:41:20.086Z,13.56
2023-04-08T12:43:47.402Z,14.10
2023-04-08T12:46:14.698Z,13.71
2023-04-08T12:48:42.474Z,14.38
2023-04-08T12:51:10.541Z,14.06
2023-04-08T12:53:38.187Z,14.04
2023-04-08T12:56:06.378Z,14.02
2023-04-08T12:58:33.792Z,13.65
2023-04-08T13:01:01.241Z,14.08
2023-04-08T13:03:31.881Z,13.80
2023-04-08T13:05:59.436Z,14.56
2023-04-08T13:08:26.885Z,14.60
2023-04-08T13:10:55.273Z,14.35
2023-04-08T13:13:22.688Z,14.09
2023-04-08T13:15:50.140Z,13.94
2023-04-08T13:18:17.893Z,13.50
2023-04-08T13:20:45.243Z,14.04
2023-04-08T13:23:13.262Z,14.37
2023-04-08T13:25:40.795Z,13.95
2023-04-08T13:28:08.351Z,14.45
2023-04-08T13:30:35.787Z,14.60
2023-04-08T13:33:03.269Z,14.52
2023-04-08T13:35:30.701Z,14.32
2023-04-08T13:37:58.163Z,14.59
2023-04-08T13:40:25.522Z,14.59
2023-04-08T13:42:52.911Z,14.76
2023-04-08T13:45:20.654Z,15.00
2023-04-08T13:47:48.094Z,14.72
2023-04-08T13:50:15.765Z,14.69
2023-04-08T13:52:43.207Z,15.09
2023-04-08T13:55:10.639Z,15.14
2023-04-08T13:57:38.010Z,14.36
2023-04-08T14:00:05.832Z,14.37
2023-04-08T14:02:33.602Z,14.59
2023-04-08T14:05:01.018Z,14.86
2023-04-08T14:07:31.017Z,14.59
2023-04-08T14:09:58.314Z,14.62
2023-04-08T14:12:25.269Z,14.32
2023-04-08T14:14:52.840Z,14.38
2023-04-08T14:17:19.857Z,14.24
2023-04-08T14:19:46.811Z,14.38
2023-04-08T14:22:15.104Z,14.96
2023-04-08T14:27:19.281Z,14.91
2023-04-08T14:29:46.690Z,14.28
2023-04-08T14:32:14.035Z,14.16
2023-04-08T14:34:43.426Z,14.06
2023-04-08T14:37:10.540Z,14.90
2023-04-08T14:39:37.919Z,14.67
2023-04-08T14:42:05.563Z,14.31
2023-04-08T14:44:33.290Z,14.74
2023-04-08T14:47:00.912Z,14.31
2023-04-08T14:49:28.164Z,14.20
2023-04-08T14:51:55.977Z,14.09
2023-04-08T14:54:23.348Z,13.42
2023-04-08T14:56:51.053Z,14.06
2023-04-08T14:59:18.539Z,13.74
2023-04-08T15:01:46.137Z,13.63
2023-04-08T15:04:13.699Z,13.92
2023-04-08T15:06:41.317Z,13.92
2023-04-08T15:09:09.002Z,13.80
2023-04-08T15:11:36.425Z,13.73
2023-04-08T15:14:07.272Z,13.96
2023-04-08T15:16:34.940Z,13.52
2023-04-08T15:19:02.878Z,13.51
2023-04-08T15:21:31.166Z,13.66
2023-04-08T15:23:58.592Z,13.39
2023-04-08T15:26:26.209Z,12.91
2023-04-08T15:28:57.332Z,13.20
2023-04-08T15:31:25.066Z,13.14
2023-04-08T15:33:53.290Z,13.22
2023-04-08T15:36:21.235Z,12.92
2023-04-08T15:41:24.716Z,12.86
2023-04-08T15:43:54.369Z,12.94
2023-04-08T15:46:22.198Z,12.74
2023-04-08T15:48:50.887Z,12.95
2023-04-08T15:51:19.762Z,12.84
2023-04-08T15:53:47.332Z,12.80
2023-04-08T15:56:16.335Z,12.80
2023-04-08T15:58:47.326Z,12.57
2023-04-08T16:01:15.371Z,12.68
2023-04-08T16:03:43.453Z,12.80
2023-04-08T16:06:11.348Z,12.56
2023-04-08T16:08:39.442Z,12.71
2023-04-08T16:11:08.152Z,12.57
2023-04-08T16:13:39.175Z,12.52
2023-04-08T16:16:06.897Z,12.61
2023-04-08T16:18:34.478Z,12.46
2023-04-08T16:21:06.167Z,12.53
2023-04-08T16:23:35.689Z,12.43
2023-04-08T16:26:08.241Z,12.59
2023-04-08T16:28:37.098Z,12.41
2023-04-08T16:31:04.568Z,12.38
2023-04-08T16:33:32.713Z,12.46
2023-04-08T16:36:01.491Z,12.47
2023-04-08T16:38:29.051Z,12.40
2023-04-08T16:40:59.312Z,12.44
2023-04-08T16:43:27.323Z,12.37
2023-04-08T16:45:54.779Z,12.36
2023-04-08T16:48:23.217Z,12.40
2023-04-08T16:50:50.880Z,12.18
2023-04-08T16:53:18.504Z,12.31
2023-04-08T16:55:46.225Z,12.32
2023-04-08T16:58:13.667Z,12.26
2023-04-08T17:00:41.497Z,12.21
2023-04-08T17:03:09.020Z,12.04
2023-04-08T17:05:37.344Z,12.16
2023-04-08T17:08:05.276Z,12.10
2023-04-08T17:10:32.858Z,12.08
2023-04-08T17:13:00.479Z,12.07
2023-04-08T17:15:27.881Z,12.00
2023-04-08T17:17:56.167Z,11.80
2023-04-08T17:20:24.981Z,11.82
2023-04-08T17:22:54.718Z,11.84
2023-04-08T17:25:22.251Z,11.79
2023-04-08T17:27:49.645Z,11.71
2023-04-08T17:30:17.056Z,11.75
2023-04-08T17:32:44.545Z,11.83
2023-04-08T17:35:12.348Z,11.82
2023-04-08T17:37:39.725Z,11.83
2023-04-08T17:40:07.937Z,11.73
2023-04-08T17:42:35.344Z,11.74
2023-04-08T17:45:02.814Z,11.78
2023-04-08T17:47:30.463Z,11.66
2023-04-08T17:49:58.006Z,11.57
2023-04-08T17:52:25.559Z,11.60
2023-04-08T17:54:53.677Z,11.62
2023-04-08T17:57:21.201Z,11.54
2023-04-08T17:59:53.233Z,11.46
2023-04-08T18:02:20.769Z,11.44
2023-04-08T18:04:48.699Z,11.35
2023-04-08T18:07:15.689Z,11.37
2023-04-08T18:09:43.023Z,11.30
2023-04-08T18:12:11.444Z,11.26
2023-04-08T18:14:39.778Z,11.17
2023-04-08T18:17:07.492Z,11.17
2023-04-08T18:19:34.523Z,11.14
2023-04-08T18:22:02.358Z,11.08
2023-04-08T18:24:30.211Z,11.06
2023-04-08T18:27:04.433Z,11.10
2023-04-08T18:29:32.488Z,11.04
2023-04-08T18:31:59.892Z,10.99
2023-04-08T18:34:27.303Z,10.92
2023-04-08T18:36:54.755Z,10.94
2023-04-08T18:39:22.786Z,10.84
2023-04-08T18:41:50.001Z,10.81
2023-04-08T18:44:17.572Z,10.72
2023-04-08T18:46:45.987Z,10.72
2023-04-08T18:49:12.977Z,10.69
2023-04-08T18:51:42.144Z,10.56
2023-04-08T18:54:13.932Z,10.46
2023-04-08T18:56:41.113Z,10.46
2023-04-08T18:59:08.195Z,10.54
2023-04-08T19:01:36.357Z,10.41
2023-04-08T19:04:08.290Z,10.35
2023-04-08T19:06:37.779Z,10.28
2023-04-08T19:09:07.440Z,10.22
2023-04-08T19:11:50.046Z,10.21
2023-04-08T19:14:18.195Z,10.15
2023-04-08T19:16:46.170Z,10.14
2023-04-08T19:19:13.161Z,10.13
2023-04-08T19:21:41.065Z,10.09
2023-04-08T19:24:09.368Z,10.14
2023-04-08T19:26:36.824Z,10.15
2023-04-08T19:29:03.827Z,10.09
2023-04-08T19:31:31.703Z,10.03
2023-04-08T19:33:59.073Z,10.06
2023-04-08T19:36:26.285Z,10.03
2023-04-08T19:38:53.738Z,10.03
2023-04-08T19:41:21.507Z,10.01
2023-04-08T19:43:49.102Z,10.00
2023-04-08T19:46:17.177Z,10.01
2023-04-08T19:48:45.529Z,9.82
2023-04-08T19:51:22.681Z,9.90
2023-04-08T19:53:51.255Z,9.89
2023-04-08T19:56:19.173Z,9.85
2023-04-08T19:58:46.838Z,9.89
2023-04-08T20:01:14.473Z,9.89
2023-04-08T20:03:42.474Z,9.80
2023-04-08T20:06:09.950Z,9.73
2023-04-08T20:08:37.065Z,9.73
2023-04-08T20:11:04.843Z,9.80
2023-04-08T20:13:32.281Z,9.78
2023-04-08T20:15:59.826Z,9.85
2023-04-08T20:18:27.365Z,9.77
2023-04-08T20:20:54.934Z,9.78
2023-04-08T20:23:22.653Z,9.86
2023-04-08T20:25:50.370Z,9.83
2023-04-08T20:28:18.904Z,9.82
2023-04-08T20:30:47.537Z,9.82
2023-04-08T20:33:15.084Z,9.75
2023-04-08T20:35:42.653Z,9.69
2023-04-08T20:38:10.167Z,9.78
2023-04-08T20:40:41.529Z,9.73
2023-04-08T20:43:12.634Z,9.73
2023-04-08T20:45:40.109Z,9.70
2023-04-08T20:48:07.778Z,9.80
2023-04-08T20:50:35.547Z,9.77
2023-04-08T20:53:03.094Z,9.72
2023-04-08T20:55:30.754Z,9.74
2023-04-08T20:57:58.255Z,9.78
2023-04-08T21:00:25.593Z,9.77
2023-04-08T21:02:53.454Z,9.80
2023-04-08T21:05:20.587Z,9.73
2023-04-08T21:07:47.932Z,9.73
2023-04-08T21:10:17.539Z,9.77
2023-04-08T21:12:45.773Z,9.76
2023-04-08T21:15:12.774Z,9.71
2023-04-08T21:17:40.337Z,9.68
2023-04-08T21:20:10.700Z,9.63
2023-04-08T21:22:38.374Z,9.60
2023-04-08T21:25:06.469Z,9.60
2023-04-08T21:27:33.833Z,9.61
2023-04-08T21:30:01.320Z,9.62
2023-04-08T21:32:30.189Z,9.65
2023-04-08T21:34:57.994Z,9.64
2023-04-08T21:37:25.543Z,9.66
2023-04-08T21:39:54.004Z,9.66
2023-04-08T21:42:22.867Z,9.65
2023-04-08T21:44:50.783Z,9.61
2023-04-08T21:47:18.643Z,9.65
2023-04-08T21:49:46.105Z,9.62
2023-04-08T21:52:13.448Z,9.59
2023-04-08T21:54:40.905Z,9.55
2023-04-08T21:57:08.330Z,9.53
2023-04-08T21:59:35.730Z,9.52
2023-04-08T22:02:04.519Z,9.47
2023-04-08T22:04:32.019Z,9.48
2023-04-08T22:06:59.370Z,9.49
2023-04-08T22:09:27.150Z,9.50
2023-04-08T22:11:54.782Z,9.48
2023-04-08T22:14:22.171Z,9.52
2023-04-08T22:16:49.720Z,9.51
2023-04-08T22:19:17.223Z,9.47
2023-04-08T22:21:44.632Z,9.38
2023-04-08T22:24:12.028Z,9.41
2023-04-08T22:26:39.402Z,9.44
2023-04-08T22:29:06.803Z,9.44
2023-04-08T22:31:33.824Z,9.40
2023-04-08T22:34:01.197Z,9.33
2023-04-08T22:36:28.558Z,9.34
2023-04-08T22:38:55.954Z,9.28
2023-04-08T22:41:23.994Z,9.29
2023-04-08T22:43:51.607Z,9.29
2023-04-08T22:46:20.158Z,9.21
2023-04-08T22:48:49.476Z,9.16
2023-04-08T22:51:17.339Z,9.20
2023-04-08T22:53:44.813Z,9.24
2023-04-08T22:56:12.317Z,9.16
2023-04-08T22:58:39.741Z,9.15
2023-04-08T23:01:18.187Z,9.12
2023-04-08T23:04:03.963Z,9.03
2023-04-08T23:06:31.368Z,9.04
2023-04-08T23:08:58.754Z,9.04
2023-04-08T23:11:26.328Z,8.94
2023-04-08T23:13:53.636Z,8.92
2023-04-08T23:16:21.625Z,8.89
2023-04-08T23:18:49.020Z,8.90
2023-04-08T23:21:16.341Z,8.94
2023-04-08T23:23:43.717Z,8.95
2023-04-08T23:26:21.314Z,8.86
2023-04-08T23:28:48.684Z,8.88
2023-04-08T23:31:16.170Z,8.97
2023-04-08T23:33:43.595Z,8.90
2023-04-08T23:36:12.049Z,8.92
2023-04-08T23:38:39.542Z,8.87
2023-04-08T23:41:07.736Z,8.93
2023-04-08T23:43:35.722Z,8.91
2023-04-08T23:46:03.237Z,8.89
2023-04-08T23:48:30.286Z,8.81
2023-04-08T23:50:57.308Z,8.80
2023-04-08T23:53:24.659Z,8.74
2023-04-08T23:55:52.072Z,8.72
2023-04-08T23:58:19.487Z,8.77
